Time,TemperatureF,DewpointF,PressureIn,WindDirection,WindDirectionDegrees,WindSpeedMPH,WindSpeedGustMPH,Humidity,HourlyPrecipIn,Conditions,Clouds,dailyrainin,SoftwareType,DateUTC
2013-04-24 00:00:00,58.4,40.0,29.95,ESE,105,0.0,3.0,50,0.00,,,0.00,weatherlink.com 1.10,2013-04-24 04:00:00,
2013-04-24 00:15:00,57.9,40.0,29.95,East,91,0.0,3.0,51,0.00,,,0.00,weatherlink.com 1.10,2013-04-24 04:15:00,
2013-04-24 00:29:00,56.9,40.0,29.94,ESE,102,0.0,1.0,53,0.00,,,0.00,weatherlink.com 1.10,2013-04-24 04:29:00,
2013-04-24 00:44:00,56.5,40.0,29.93,ESE,110,0.0,2.0,55,0.00,,,0.00,weatherlink.com 1.10,2013-04-24 04:44:00,
2013-04-24 00:59:00,55.9,40.0,29.93,ESE,118,1.0,2.0,56,0.00,,,0.00,weatherlink.com 1.10,2013-04-24 04:59:00,
2013-04-24 01:14:00,56.2,40.0,29.92,ESE,103,2.0,3.0,56,0.00,,,0.00,weatherlink.com 1.10,2013-04-24 05:14:00,
2013-04-24 01:29:00,56.0,40.0,29.92,ESE,108,0.0,3.0,56,0.00,,,0.00,weatherlink.com 1.10,2013-04-24 05:29:00,
2013-04-24 01:44:00,55.4,41.0,29.92,East,97,0.0,1.0,58,0.00,,,0.00,weatherlink.com 1.10,2013-04-24 05:44:00,
2013-04-24 01:59:00,55.4,41.0,29.91,East,98,0.0,1.0,58,0.00,,,0.00,weatherlink.com 1.10,2013-04-24 05:59:00,
2013-04-24 02:14:00,55.0,41.0,29.90,East,101,0.0,2.0,59,0.00,,,0.00,weatherlink.com 1.10,2013-04-24 06:14:00,
2013-04-24 02:29:00,54.8,41.0,29.90,SE,127,1.0,2.0,60,0.00,,,0.00,weatherlink.com 1.10,2013-04-24 06:29:00,
2013-04-24 02:44:00,54.6,41.0,29.89,ESE,104,0.0,2.0,61,0.00,,,0.00,weatherlink.com 1.10,2013-04-24 06:44:00,
2013-04-24 02:59:00,54.5,42.0,29.89,ESE,112,2.0,2.0,62,0.00,,,0.00,weatherlink.com 1.10,2013-04-24 06:59:00,
2013-04-24 03:14:00,55.0,42.0,29.89,ESE,118,1.0,4.0,62,0.00,,,0.00,weatherlink.com 1.10,2013-04-24 07:14:00,
2013-04-24 03:29:00,55.2,42.0,29.89,East,97,1.0,6.0,62,0.00,,,0.00,weatherlink.com 1.10,2013-04-24 07:29:00,
2013-04-24 03:44:00,55.4,42.0,29.89,SE,129,1.0,3.0,61,0.00,,,0.00,weatherlink.com 1.10,2013-04-24 07:44:00,
2013-04-24 03:59:00,55.6,42.0,29.89,SE,145,1.0,4.0,61,0.00,,,0.00,weatherlink.com 1.10,2013-04-24 07:59:00,
2013-04-24 04:14:00,56.3,42.0,29.89,East,91,3.0,4.0,59,0.00,,,0.00,weatherlink.com 1.10,2013-04-24 08:14:00,
2013-04-24 04:30:00,56.6,42.0,29.89,South,186,1.0,3.0,58,0.00,,,0.00,weatherlink.com 1.10,2013-04-24 08:30:00,
2013-04-24 04:45:00,56.8,42.0,29.89,SSW,208,1.0,5.0,58,0.00,,,0.00,weatherlink.com 1.10,2013-04-24 08:45:00,
2013-04-24 05:00:00,57.2,42.0,29.89,SE,146,2.0,3.0,57,0.00,,,0.00,weatherlink.com 1.10,2013-04-24 09:00:00,
2013-04-24 05:16:00,57.4,42.0,29.89,South,188,2.0,4.0,56,0.00,,,0.00,weatherlink.com 1.10,2013-04-24 09:16:00,
2013-04-24 05:30:00,57.4,42.0,29.89,SSW,197,2.0,3.0,57,0.00,,,0.00,weatherlink.com 1.10,2013-04-24 09:30:00,
2013-04-24 05:45:00,57.3,42.0,29.88,SE,131,4.0,4.0,57,0.00,,,0.00,weatherlink.com 1.10,2013-04-24 09:45:00,
2013-04-24 06:00:00,57.5,42.0,29.88,SE,127,3.0,4.0,57,0.00,,,0.00,weatherlink.com 1.10,2013-04-24 10:00:00,
2013-04-24 06:15:00,57.7,42.0,29.87,ESE,113,1.0,5.0,56,0.00,,,0.00,weatherlink.com 1.10,2013-04-24 10:15:00,
2013-04-24 06:30:00,57.3,42.0,29.87,East,101,2.0,4.0,57,0.00,,,0.00,weatherlink.com 1.10,2013-04-24 10:30:00,
2013-04-24 06:45:00,57.2,43.0,29.86,East,101,2.0,4.0,60,0.00,,,0.00,weatherlink.com 1.10,2013-04-24 10:45:00,
2013-04-24 07:00:00,57.1,43.0,29.86,East,101,3.0,5.0,60,0.00,,,0.00,weatherlink.com 1.10,2013-04-24 11:00:00,
2013-04-24 07:15:00,57.6,43.0,29.86,East,100,2.0,6.0,59,0.00,,,0.00,weatherlink.com 1.10,2013-04-24 11:15:00,
2013-04-24 07:30:00,58.1,44.0,29.86,SSE,149,2.0,6.0,60,0.00,,,0.00,weatherlink.com 1.10,2013-04-24 11:30:00,
2013-04-24 07:45:00,58.7,45.0,29.85,SE,127,5.0,7.0,60,0.00,,,0.00,weatherlink.com 1.10,2013-04-24 11:45:00,
2013-04-24 08:00:00,59.1,45.0,29.85,SE,136,2.0,5.0,61,0.00,,,0.00,weatherlink.com 1.10,2013-04-24 12:00:00,
2013-04-24 08:15:00,59.7,46.0,29.85,SE,141,4.0,6.0,61,0.00,,,0.00,weatherlink.com 1.10,2013-04-24 12:15:00,
2013-04-24 08:30:00,60.3,46.0,29.85,SE,144,2.0,5.0,60,0.00,,,0.00,weatherlink.com 1.10,2013-04-24 12:30:00,
2013-04-24 08:45:00,60.8,47.0,29.84,SSE,149,3.0,10.0,60,0.00,,,0.00,weatherlink.com 1.10,2013-04-24 12:45:00,
2013-04-24 09:00:00,61.8,48.0,29.83,SSE,152,4.0,7.0,60,0.00,,,0.00,weatherlink.com 1.10,2013-04-24 13:00:00,
2013-04-24 09:15:00,63.1,48.0,29.83,SSW,211,4.0,10.0,58,0.00,,,0.00,weatherlink.com 1.10,2013-04-24 13:15:00,
2013-04-24 09:30:00,63.8,49.0,29.82,SE,137,1.0,7.0,60,0.00,,,0.00,weatherlink.com 1.10,2013-04-24 13:30:00,
2013-04-24 09:46:00,64.9,49.0,29.82,SSW,213,5.0,12.0,57,0.00,,,0.00,weatherlink.com 1.10,2013-04-24 13:46:00,
2013-04-24 10:00:00,65.2,50.0,29.82,SSW,211,3.0,16.0,58,0.00,,,0.00,weatherlink.com 1.10,2013-04-24 14:00:00,
2013-04-24 10:15:00,66.3,50.0,29.81,WSW,250,7.0,12.0,57,0.00,,,0.00,weatherlink.com 1.10,2013-04-24 14:15:00,
2013-04-24 10:30:00,67.1,51.0,29.79,SSE,160,4.0,11.0,57,0.00,,,0.00,weatherlink.com 1.10,2013-04-24 14:30:00,
2013-04-24 10:45:00,68.4,53.0,29.79,SSW,201,3.0,11.0,58,0.00,,,0.00,weatherlink.com 1.10,2013-04-24 14:45:00,
2013-04-24 11:00:00,68.3,51.0,29.78,SSW,195,12.0,16.0,55,0.00,,,0.00,weatherlink.com 1.10,2013-04-24 15:00:00,
2013-04-24 11:15:00,66.7,51.0,29.79,SSW,193,6.0,19.0,58,0.00,,,0.00,weatherlink.com 1.10,2013-04-24 15:15:00,
2013-04-24 11:30:00,66.2,51.0,29.79,SW,224,5.0,14.0,59,0.00,,,0.00,weatherlink.com 1.10,2013-04-24 15:30:00,
2013-04-24 11:45:00,66.3,52.0,29.79,SSW,194,6.0,11.0,60,0.00,,,0.00,weatherlink.com 1.10,2013-04-24 15:45:00,
2013-04-24 12:01:00,66.2,52.0,29.78,SSW,204,7.0,17.0,61,0.00,,,0.00,weatherlink.com 1.10,2013-04-24 16:01:00,
2013-04-24 12:16:00,66.3,53.0,29.77,SSW,197,5.0,16.0,62,0.00,,,0.00,weatherlink.com 1.10,2013-04-24 16:16:00,
2013-04-24 12:31:00,66.2,53.0,29.77,West,259,7.0,8.0,63,0.00,,,0.00,weatherlink.com 1.10,2013-04-24 16:31:00,
2013-04-24 12:46:00,64.3,53.0,29.78,SW,228,4.0,8.0,68,0.00,,,0.00,weatherlink.com 1.10,2013-04-24 16:46:00,
2013-04-24 13:01:00,61.8,55.0,29.78,SSW,193,6.0,11.0,78,0.01,,,0.01,weatherlink.com 1.10,2013-04-24 17:01:00,
2013-04-24 13:16:00,60.3,54.0,29.77,SW,232,6.0,10.0,81,0.01,,,0.01,weatherlink.com 1.10,2013-04-24 17:16:00,
2013-04-24 13:31:00,59.5,55.0,29.77,SW,228,3.0,11.0,84,0.05,,,0.05,weatherlink.com 1.10,2013-04-24 17:31:00,
2013-04-24 13:46:00,58.8,54.0,29.78,SW,231,9.0,15.0,85,0.06,,,0.06,weatherlink.com 1.10,2013-04-24 17:46:00,
2013-04-24 14:01:00,57.8,54.0,29.78,SSW,192,13.0,25.0,87,0.15,,,0.16,weatherlink.com 1.10,2013-04-24 18:01:00,
2013-04-24 14:16:00,57.4,54.0,29.78,SW,215,10.0,26.0,89,0.19,,,0.20,weatherlink.com 1.10,2013-04-24 18:16:00,
2013-04-24 14:31:00,57.2,54.0,29.78,SSW,210,5.0,17.0,90,0.20,,,0.25,weatherlink.com 1.10,2013-04-24 18:31:00,
2013-04-24 14:46:00,57.1,55.0,29.77,SSW,193,6.0,11.0,91,0.21,,,0.27,weatherlink.com 1.10,2013-04-24 18:46:00,
2013-04-24 15:01:00,57.4,55.0,29.76,West,265,6.0,14.0,91,0.10,,,0.27,weatherlink.com 1.10,2013-04-24 19:01:00,
2013-04-24 15:16:00,57.8,55.0,29.76,SW,224,9.0,13.0,91,0.07,,,0.27,weatherlink.com 1.10,2013-04-24 19:16:00,
2013-04-24 15:31:00,58.7,56.0,29.75,SW,221,4.0,12.0,91,0.02,,,0.27,weatherlink.com 1.10,2013-04-24 19:31:00,
2013-04-24 15:46:00,59.4,56.0,29.73,SSW,195,9.0,22.0,87,0.00,,,0.27,weatherlink.com 1.10,2013-04-24 19:46:00,
2013-04-24 16:01:00,60.0,56.0,29.73,SSW,193,10.0,17.0,85,0.00,,,0.27,weatherlink.com 1.10,2013-04-24 20:01:00,
2013-04-24 16:16:00,60.2,55.0,29.73,SW,218,11.0,24.0,83,0.01,,,0.28,weatherlink.com 1.10,2013-04-24 20:16:00,
2013-04-24 16:31:00,60.7,55.0,29.73,SSW,204,14.0,23.0,81,0.01,,,0.28,weatherlink.com 1.10,2013-04-24 20:31:00,
2013-04-24 16:46:00,60.9,55.0,29.73,SW,214,12.0,31.0,80,0.01,,,0.28,weatherlink.com 1.10,2013-04-24 20:46:00,
2013-04-24 17:01:00,61.0,54.0,29.73,SSW,200,17.0,28.0,79,0.01,,,0.28,weatherlink.com 1.10,2013-04-24 21:01:00,
2013-04-24 17:16:00,61.1,55.0,29.74,SW,214,14.0,28.0,79,0.00,,,0.28,weatherlink.com 1.10,2013-04-24 21:16:00,
2013-04-24 17:31:00,56.1,49.0,29.77,West,270,30.0,32.0,76,0.00,,,0.28,weatherlink.com 1.10,2013-04-24 21:31:00,
2013-04-24 17:46:00,49.6,46.0,29.81,West,273,12.0,25.0,87,0.00,,,0.28,weatherlink.com 1.10,2013-04-24 21:46:00,
2013-04-24 18:01:00,47.5,44.0,29.83,West,280,10.0,25.0,88,0.00,,,0.28,weatherlink.com 1.10,2013-04-24 22:01:00,
2013-04-24 18:16:00,45.3,42.0,29.86,WSW,239,15.0,24.0,88,0.01,,,0.29,weatherlink.com 1.10,2013-04-24 22:16:00,
2013-04-24 18:31:00,43.8,41.0,29.89,West,276,8.0,16.0,90,0.01,,,0.29,weatherlink.com 1.10,2013-04-24 22:31:00,
2013-04-24 18:46:00,43.1,40.0,29.91,West,259,7.0,16.0,90,0.01,,,0.29,weatherlink.com 1.10,2013-04-24 22:46:00,
2013-04-24 19:01:00,42.8,40.0,29.93,WSW,250,11.0,15.0,90,0.01,,,0.29,weatherlink.com 1.10,2013-04-24 23:01:00,
2013-04-24 19:16:00,42.5,40.0,29.94,WSW,248,10.0,17.0,89,0.00,,,0.29,weatherlink.com 1.10,2013-04-24 23:16:00,
2013-04-24 19:31:00,42.1,39.0,29.95,West,263,6.0,16.0,89,0.00,,,0.29,weatherlink.com 1.10,2013-04-24 23:31:00,
2013-04-24 19:47:00,41.9,39.0,29.97,WSW,246,11.0,16.0,88,0.00,,,0.29,weatherlink.com 1.10,2013-04-24 23:47:00,
2013-04-24 20:02:00,41.8,39.0,29.98,West,277,7.0,21.0,88,0.00,,,0.29,weatherlink.com 1.10,2013-04-25 00:02:00,
2013-04-24 20:17:00,40.9,38.0,30.00,West,265,6.0,17.0,89,0.00,,,0.29,weatherlink.com 1.10,2013-04-25 00:17:00,
2013-04-24 20:32:00,40.2,38.0,30.02,West,259,10.0,17.0,90,0.00,,,0.29,weatherlink.com 1.10,2013-04-25 00:32:00,
2013-04-24 20:47:00,40.0,37.0,30.04,West,259,6.0,15.0,90,0.00,,,0.29,weatherlink.com 1.10,2013-04-25 00:47:00,
2013-04-24 21:02:00,40.0,37.0,30.06,SSW,211,4.0,14.0,87,0.00,,,0.29,weatherlink.com 1.10,2013-04-25 01:02:00,
2013-04-24 21:17:00,39.8,36.0,30.07,WNW,289,8.0,15.0,86,0.00,,,0.29,weatherlink.com 1.10,2013-04-25 01:17:00,
2013-04-24 21:32:00,39.5,35.0,30.08,West,259,5.0,7.0,85,0.00,,,0.29,weatherlink.com 1.10,2013-04-25 01:32:00,
2013-04-24 21:47:00,39.2,35.0,30.11,West,276,4.0,13.0,84,0.00,,,0.29,weatherlink.com 1.10,2013-04-25 01:47:00,
2013-04-24 22:02:00,39.1,35.0,30.12,SW,229,7.0,12.0,84,0.00,,,0.29,weatherlink.com 1.10,2013-04-25 02:02:00,
2013-04-24 22:17:00,39.1,34.0,30.13,SW,230,4.0,11.0,83,0.00,,,0.29,weatherlink.com 1.10,2013-04-25 02:17:00,
2013-04-24 22:32:00,39.2,35.0,30.14,WSW,240,5.0,11.0,83,0.00,,,0.29,weatherlink.com 1.10,2013-04-25 02:32:00,
2013-04-24 22:47:00,39.1,35.0,30.14,SSW,207,3.0,9.0,84,0.00,,,0.29,weatherlink.com 1.10,2013-04-25 02:47:00,
2013-04-24 23:02:00,39.1,35.0,30.15,WSW,240,3.0,8.0,84,0.00,,,0.29,weatherlink.com 1.10,2013-04-25 03:02:00,
2013-04-24 23:17:00,38.6,35.0,30.15,West,281,6.0,12.0,86,0.01,,,0.30,weatherlink.com 1.10,2013-04-25 03:17:00,
2013-04-24 23:32:00,37.7,35.0,30.16,WSW,242,4.0,9.0,88,0.01,,,0.30,weatherlink.com 1.10,2013-04-25 03:32:00,
2013-04-24 23:47:00,37.7,35.0,30.16,WSW,245,4.0,9.0,90,0.01,,,0.30,weatherlink.com 1.10,2013-04-25 03:47:00,